CST,Max TemperatureF,Mean TemperatureF,Min TemperatureF,Max Dew PointF,MeanDew PointF,Min DewpointF,Max Humidity, Mean Humidity, Min Humidity, Max Sea Level PressureIn, Mean Sea Level PressureIn, Min Sea Level PressureIn, Max VisibilityMiles, Mean VisibilityMiles, Min VisibilityMiles, Max Wind SpeedMPH, Mean Wind SpeedMPH, Max Gust SpeedMPH,PrecipitationIn, CloudCover, Events, WindDirDegrees
2012-12-1,50,37,24,33,29,23,92,69,46,29.93,29.79,29.71,,,,22,8,29,0.00,,,323
2012-12-2,60,40,19,38,30,19,100,70,39,29.96,29.77,29.45,,,,38,14,49,0.00,,,181
2012-12-3,58,44,30,40,32,23,76,56,35,29.99,29.64,29.35,,,,39,21,51,0.01,,,294
2012-12-4,32,23,13,22,12,7,84,67,50,30.45,30.29,30.01,,,,20,8,24,0.00,,,8
2012-12-5,44,30,15,25,18,11,80,63,45,30.40,30.02,29.72,,,,24,12,30,0.00,,,171
2012-12-6,41,30,18,29,23,16,92,70,48,30.07,29.94,29.75,,,,26,12,32,0.00,,,319
2012-12-7,27,24,20,25,21,18,100,91,81,30.13,30.09,30.05,,,,10,3,12,0.11,,,24
2012-12-8,29,25,20,26,23,18,100,93,85,30.09,30.00,29.95,,,,21,10,25,0.27,,,155
2012-12-9,27,13,-2,25,6,-8,92,83,73,30.33,30.17,29.96,,,,36,24,44,0.07,,,359
2012-12-10,15,1,-13,9,-1,-15,90,77,64,30.27,30.04,29.87,,,,16,8,18,0.00,,,231
2012-12-11,16,8,0,13,8,-1,100,87,73,30.00,29.94,29.87,,,,16,6,20,0.01,,,316
2012-12-12,26,18,9,21,14,8,92,83,74,30.00,29.89,29.81,,,,20,9,23,0.00,,,129
2012-12-13,18,11,4,14,9,4,96,85,74,30.21,30.14,29.98,,,,21,9,23,0.00,,,4
2012-12-14,19,13,6,16,12,7,100,92,84,30.14,29.98,29.76,,,,16,7,20,0.00,,,173
2012-12-15,29,23,16,28,22,13,100,90,80,29.81,29.72,29.65,,,,23,13,26,0.19,,,347
2012-12-16,22,19,16,20,18,13,100,94,88,29.91,29.88,29.81,,,,25,11,33,0.00,,,6
2012-12-17,22,21,19,21,19,18,100,96,91,29.88,29.78,29.68,,,,10,6,13,0.00,,,147
2012-12-18,29,23,17,27,23,18,100,91,81,29.82,29.71,29.65,,,,14,6,17,0.02,,,182
2012-12-19,26,22,18,21,15,12,88,78,68,30.14,29.99,29.83,,,,25,15,31,0.00,,,291
2012-12-20,18,8,-3,14,6,-4,95,86,76,30.35,30.23,30.14,,,,23,14,28,0.00,,,347
2012-12-21,9,1,-7,5,-1,-9,100,90,79,30.42,30.33,30.17,,,,15,7,17,0.00,,,168
2012-12-22,15,9,3,9,4,0,91,82,73,30.27,30.19,30.12,,,,24,12,26,0.00,,,360
2012-12-23,11,7,2,6,3,0,95,88,80,30.28,30.24,30.19,,,,17,9,21,0.00,,,20
2012-12-24,6,0,-7,2,-7,-11,87,80,72,30.54,30.38,30.21,,,,22,14,24,0.01,,,348
2012-12-25,7,-1,-10,-1,-7,-13,87,78,69,30.67,30.61,30.53,,,,15,4,16,0.00,,,355
2012-12-26,9,6,2,4,0,-7,88,84,80,30.51,30.41,30.35,,,,9,6,10,0.00,,,168
2012-12-27,11,7,3,8,4,0,92,84,76,30.33,30.28,30.24,,,,8,4,9,0.04,,,173
2012-12-28,16,8,-1,11,3,-4,100,90,80,30.24,30.20,30.17,,,,10,1,12,0.01,,,311
2012-12-29,12,3,-6,4,0,-8,95,84,73,30.25,30.20,30.16,,,,9,3,10,0.00,,,234
2012-12-30,22,10,-2,18,7,-5,91,82,73,30.20,30.10,29.97,,,,22,9,28,0.00,,,79
2012-12-31,18,4,-10,12,-1,-13,91,84,76,30.40,30.34,30.19,,,,16,5,20,T,,,33